Details From LFPG - Paris Charles De Gaulle
To EGKK - London Gatwick
Flight Number -
Tags Standard
Created
Modified
Stats Distance 210 nm / 388 km
Max Altitude 21,000 ft / 6,401 m
Waypoints 5
Social Downloads 284
Likes 0
Share

Download

Looking for another format? Having issues loading an existing format? Contact us
Advertisement - Login to hide

Notes

None

Route

LFPG PG264 MID25 MID10 EGKK

ID Type Via Altitude (ft/m) Position (lat/lon) Dist (leg/tot) Name
O LFPG APT - 0 / 0 49.02472 / 2.52489 - / 0 nm
PG264 FIX - 3,573 / 1,089 48.98439 / 2.34639 7 / 7 nm
MID25 FIX - 21,000 / 6,401 50.64806 / -0.53583 149 / 157 nm
MID10 FIX - 12,688 / 3,867 51.01917 / -0.88306 25 / 183 nm
O EGKK APT - 0 / 0 51.14511 / -0.21231 26 / 209 nm

Altitude Profile

Advertisement - Login to hide

Weather


0- 5 10 15 20 25 30 35+ Temperature / °C

Clouds and Precipitation
Forecast for 2020-07-12 12:00 UTC. Updated an hour ago

Ground ~20,000 ft ~40,000 ft Winds

LFPG

Details ICAO LFPG (CDG)
Name Paris Charles De Gaulle
Region France
Timezone Europe/Paris (UTC+2.0)
Stats Elevation 392 ft / 119 m (AMSL)
Location 49.009700° 2.562570°
Runways 4
Magnetic Variation 0.986° E

METAR

LFPG 121030Z 03009KT 350V050 9999 FEW045 SCT260 21/09 Q1027 NOSIG

Decode

TAF

TAF LFPG 120500Z 1206/1312 02008KT CAVOK TX26/1215Z TN13/1206Z= TAF LFPO 120500Z 1206/1312 03007KT CAVOK

Decode

Departure Runways

ID Width Length Bearing (true/mag) Surface Threshold Overrun Markings Lighting
08L 148 ft / 45 m 13,713 ft / 4,180 m 85.31° / 84.32° ASPHALT 0 ft / 0 m 489 ft / 149 m PREC-APP CENTERLINE EDGE THRESHOLD ALSF-II TDZ REIL-OMNI
08R 197 ft / 60 m 8,833 ft / 2,692 m 85.33° / 84.34° ASPHALT 0 ft / 0 m 489 ft / 149 m PREC-APP CENTERLINE EDGE THRESHOLD ALSF-II TDZ REIL-OMNI
09L 197 ft / 60 m 8,866 ft / 2,703 m 85.32° / 84.33° ASPHALT 0 ft / 0 m 0 ft / 0 m PREC-APP CENTERLINE EDGE THRESHOLD ALSF-II TDZ REIL-OMNI
09R 148 ft / 45 m 13,746 ft / 4,190 m 85.30° / 84.31° ASPHALT 0 ft / 0 m 0 ft / 0 m PREC-APP CENTERLINE EDGE THRESHOLD ALSF-II TDZ REIL-OMNI
26L 197 ft / 60 m 8,833 ft / 2,692 m 265.35° / 264.37° ASPHALT 0 ft / 0 m 486 ft / 148 m PREC-APP CENTERLINE EDGE THRESHOLD ALSF-II TDZ REIL-OMNI
26R 148 ft / 45 m 13,713 ft / 4,180 m 265.35° / 264.37° ASPHALT 1,877 ft / 572 m 279 ft / 85 m PREC-APP CENTERLINE EDGE THRESHOLD ALSF-II TDZ REIL-OMNI
27L 148 ft / 45 m 13,746 ft / 4,190 m 265.34° / 264.36° ASPHALT 1,959 ft / 597 m 0 ft / 0 m PREC-APP CENTERLINE EDGE THRESHOLD ALSF-II TDZ REIL-OMNI
27R 197 ft / 60 m 8,866 ft / 2,703 m 265.35° / 264.36° ASPHALT 0 ft / 0 m 0 ft / 0 m PREC-APP CENTERLINE EDGE THRESHOLD ALSF-II TDZ REIL-OMNI

EGKK

Details ICAO EGKK (LGW)
Name London Gatwick
Region United Kingdom
Timezone Europe/London (UTC+1.0)
Stats Elevation 187 ft / 57 m (AMSL)
Location 51.148800° -0.191923°
Runways 2
Magnetic Variation 0.058° W

METAR

EGKK 121020Z VRB03KT CAVOK 20/07 Q1029

Decode

TAF

TAF EGKK 120454Z 1206/1312 VRB03KT 9999 FEW045 BECMG 1213/1216 19010KT BECMG 1219/1222 VRB03KT PROB40 1302/1306 7000 BECMG 1307/1310 23010KT

Decode

Destination Runways

ID Width Length Bearing (true/mag) Surface Threshold Overrun Markings Lighting
08L 148 ft / 45 m 8,382 ft / 2,555 m 77.59° / 77.64° ASPHALT 1,047 ft / 319 m 0 ft / 0 m APP CENTERLINE EDGE THRESHOLD REIL-OMNI
08R 148 ft / 45 m 10,851 ft / 3,308 m 77.60° / 77.65° ASPHALT 1,289 ft / 393 m 0 ft / 0 m PREC-APP CENTERLINE EDGE THRESHOLD CALVERT-ILS TDZ REIL-OMNI
26L 148 ft / 45 m 10,851 ft / 3,308 m 257.63° / 257.69° ASPHALT 1,388 ft / 423 m 102 ft / 31 m PREC-APP CENTERLINE EDGE THRESHOLD CALVERT-ILS TDZ REIL-OMNI
26R 148 ft / 45 m 8,382 ft / 2,555 m 257.61° / 257.67° ASPHALT 1,358 ft / 414 m 0 ft / 0 m APP CENTERLINE EDGE THRESHOLD REIL-OMNI

Approach Navaids

Runway Type Ident Frequency Range Bearing (true/mag) Slope Elevation
08R DME IGG 110.90 MHz 18 nm / 33 km - - 274 ft / 84 m (AMSL)
08R LOC-ILS IGG 110.90 MHz 18 nm / 33 km 77.62° / 77.68 ° - 187 ft / 57 m (AMSL)
08R GS IGG 110.90 MHz 10 nm / 19 km 77.62° / 77.68 ° 3.00° 187 ft / 57 m (AMSL)
26L DME IWW 110.90 MHz 18 nm / 33 km - - 274 ft / 84 m (AMSL)
26L LOC-ILS IWW 110.90 MHz 18 nm / 33 km 257.62° / 257.68 ° - 187 ft / 57 m (AMSL)
26L GS IWW 110.90 MHz 10 nm / 19 km 257.62° / 257.68 ° 3.00° 187 ft / 57 m (AMSL)

Popular Alternatives